1706260500Z   WORAPOJN

TAF VTCC 260500Z 2606/2712 22005KT 9999 SCT040

TEMPO 2610/2612 20010G20KT 4000 TSRA FEW020CB=

TAF VTCT 260500Z 2606/2712 19005KT 9999 SCT040

TEMPO 2610/2612 20010G20KT 4000 TSRA FEW020CB=

TAF VTCH 260500Z 2606/2706 21005KT 9999 SCT040

TEMPO 2609/2611 22010G20KT 4000 TSRA FEW020CB=

TAF VTCN 260500Z 2606/2706 20005KT 9999 SCT040

TEMPO 2610/2612 22010G20KT 4000 TSRA FEW020CB=

TAF VTCL 260500Z 2606/2706 21005KT 9999 SCT040

TEMPO 2610/2612 22010G20KT 4000 TSRA FEW020CB=

TAF VTCP 260500Z 2606/2706 22005KT 9999 SCT040=

TAF VTPT 260500Z 2606/2706 22005KT 9999 SCT040=

TAF VTPM 260500Z 2606/2706 24005KT 9999 SCT040

TEMPO 2609/2611 25010G20KT 4000 TSRA FEW020CB=

TAF VTPP 260500Z 2606/2706 22005KT 9999 SCT040

TEMPO 2610/2612 23010G20KT 4000 TSRA FEW020CB=

TAF VTPB 260500Z 2606/2706 23005KT 9999 SCT040=

TAF VTPO 260500Z 2606/2706 21005KT 9999 SCT040

TEMPO 2609/2611 22010G20KT 4000 TSRA FEW020CB=

 

1706261100Z   WORAPOJN

TAF VTCC 261100Z 2612/2718 22005KT 9999 SCT040

TEMPO 2710/2712 20010G20KT 4000 TSRA FEW020CB=

TAF VTCT 261100Z 2612/2718 20005KT 9999 SCT040

TEMPO 2710/2712 19010G20KT 4000 TSRA FEW020CB=

TAF VTCH 261100Z 2612/2718 21005KT 9999 SCT040

TEMPO 2709/2711 22010G20KT 4000 TSRA FEW020CB=

TAF VTCN 261100Z 2612/2718 20005KT 9999 SCT040

TEMPO 2710/2712 22010G20KT 4000 TSRA FEW020CB=

TAF VTCL 261100Z 2612/2718 21005KT 9999 SCT040

TEMPO 2710/2712 22010G20KT 4000 TSRA FEW020CB=

TAF VTCP 261100Z 2612/2718 22005KT 9999 SCT040=

TAF VTPT 261100Z 2612/2718 22005KT 9999 SCT040=

TAF VTPM 261100Z 2612/2718 23005KT 9999 SCT040

TEMPO 2709/2711 24010G20KT 4000 TSRA FEW020CB=

TAF VTPP 261100Z 2612/2718 22005KT 9999 SCT040

TEMPO 2710/2712 23010G20KT 4000 TSRA FEW020CB=

TAF VTPB 261100Z 2612/2718 22005KT 9999 SCT040=

TAF VTPO 261100Z 2612/2718 21005KT 9999 SCT040

TEMPO 2710/2712 22010G20KT 4000 TSRA FEW020CB=